CFT9 weather

Zama Lake Airport
Zama Lake, Alberta, Canada

Public forecast

Using degrees Celsius for public forecast. Weather courtesy of forecast.io.

Closest aviation weather report (METAR) to Zama Lake Airport

Closest report is High Level Airport, 59.8 nm (110.8 km) ESE. Retrieved 2019/10/24 00:00 UTC (25 minutes ago):

CYOJ 240000Z 14005KT 15SM BKN250 01/M02 A3019 RMK CS7 SLP245

Closest aviation forecast (TAF) to Zama Lake Airport

Closest forecast is High Level Airport, 59.8 nm (110.8 km) ESE. Retrieved 2019-10-24 01:42 UTC (0 seconds ago):

TAF CYOJ 240038Z 2401/2413 VRB03KT P6SM BKN250 FM240600 15008KT P6SM SCT040 OVC100 TEMPO 2406/2413 SCT020 OVC040 BECMG 2408/2410 VRB03KT RMK NXT FCST BY 240700Z